Time;durP1;ratioP1;P1;durP2;ratioP2;P2;SDS_P1;SDS_P2;PMS_P1;PMS_P2;Temp;Humidity;BMP_temperature;BMP_pressure;BME280_temperature;BME280_humidity;BME280_pressure;Samples;Min_cycle;Max_cycle;Signal;HPM_P1;HPM_P2
2023/06/27 00:01:10;;;;;;;10.13;3.90;;;;;;;20.68;50.21;99468.31;7739266;32;40018;-77
2023/06/27 00:05:27;;;;;;;6.43;3.83;;;;;;;20.63;50.55;99478.50;7739115;32;39635;-77
2023/06/27 00:09:43;;;;;;;9.02;3.62;;;;;;;20.46;51.41;99484.22;7739090;32;37844;-78
2023/06/27 00:14:00;;;;;;;6.87;3.50;;;;;;;20.55;51.15;99482.16;7739049;32;37109;-77
2023/06/27 00:18:17;;;;;;;6.72;3.28;;;;;;;20.67;50.68;99488.88;7738880;32;39368;-77
2023/06/27 00:22:33;;;;;;;7.50;3.85;;;;;;;20.52;51.25;99499.44;7738853;32;40016;-78
2023/06/27 00:26:50;;;;;;;9.90;3.90;;;;;;;20.40;52.05;99489.19;7738257;32;38740;-77
2023/06/27 00:31:06;;;;;;;6.40;3.60;;;;;;;20.54;51.86;99488.03;7738841;32;37778;-77
2023/06/27 00:35:23;;;;;;;6.60;3.87;;;;;;;20.40;51.53;99499.44;7738746;32;39071;-77
2023/06/27 00:39:41;;;;;;;9.60;3.37;;;;;;;20.56;50.73;99499.59;7738669;32;40016;-77
2023/06/27 00:43:57;;;;;;;6.93;3.72;;;;;;;20.34;51.44;99487.00;7738713;32;36779;-77
2023/06/27 00:48:14;;;;;;;6.12;3.67;;;;;;;20.45;50.95;99477.06;7738662;32;37105;-78
2023/06/27 00:52:30;;;;;;;6.55;3.58;;;;;;;20.42;50.96;99477.75;7724737;32;39489;-77
2023/06/27 00:56:49;;;;;;;6.25;3.40;;;;;;;20.26;51.19;99470.16;7738527;32;39694;-77
2023/06/27 01:01:05;;;;;;;6.55;3.40;;;;;;;20.31;51.34;99457.22;7724997;32;37970;-77
2023/06/27 01:05:21;;;;;;;6.82;3.65;;;;;;;20.18;51.74;99450.88;7738435;32;38140;-77
2023/06/27 01:09:54;;;;;;;8.35;3.80;;;;;;;20.20;51.65;99438.31;7724677;32;40060;-77
2023/06/27 01:14:12;;;;;;;7.47;3.67;;;;;;;20.11;51.61;99440.41;7738366;32;39970;-77
2023/06/27 01:18:31;;;;;;;7.70;4.15;;;;;;;20.01;52.22;99443.59;7738138;32;38464;-77
2023/06/27 01:23:22;;;;;;;7.37;3.60;;;;;;;19.89;52.72;99444.37;7738308;32;36976;-77
2023/06/27 01:27:39;;;;;;;7.37;3.85;;;;;;;20.02;52.35;99434.12;7738317;32;40237;-78
2023/06/27 01:32:18;;;;;;;6.62;3.42;;;;;;;19.89;52.44;99444.37;7738069;32;39585;-78
2023/06/27 01:37:04;;;;;;;7.15;3.72;;;;;;;19.94;52.46;99435.88;7707607;32;37969;-78
2023/06/27 01:41:22;;;;;;;16.92;3.90;;;;;;;19.94;52.60;99435.03;7725169;32;37018;-77
2023/06/27 01:45:40;;;;;;;10.00;3.97;;;;;;;19.73;53.00;99435.91;7724060;32;39039;-77
2023/06/27 01:49:57;;;;;;;7.68;3.65;;;;;;;19.80;53.00;99429.81;7737863;32;40194;-77
2023/06/27 01:54:13;;;;;;;7.82;3.95;;;;;;;19.58;54.25;99419.97;7723988;32;36128;-77
2023/06/27 01:58:30;;;;;;;6.60;3.90;;;;;;;19.61;54.49;99422.84;7737455;32;37794;-78
2023/06/27 02:02:46;;;;;;;6.55;3.60;;;;;;;19.68;53.91;99416.78;7737735;32;39502;-78
2023/06/27 02:07:03;;;;;;;8.05;4.37;;;;;;;19.70;53.91;99415.28;7737634;32;40750;-78
2023/06/27 02:11:19;;;;;;;11.05;3.75;;;;;;;19.75;53.95;99410.69;7723794;32;38394;-78
2023/06/27 02:15:35;;;;;;;9.90;3.90;;;;;;;19.76;53.99;99404.81;7737446;32;37243;-78
2023/06/27 02:19:51;;;;;;;7.22;3.50;;;;;;;19.60;53.80;99396.34;7737456;32;40199;-78
2023/06/27 02:24:07;;;;;;;5.78;3.45;;;;;;;19.75;53.22;99383.03;7723647;32;39910;-78
2023/06/27 02:28:24;;;;;;;6.75;3.60;;;;;;;19.73;53.21;99390.84;7723371;32;37845;-78
2023/06/27 02:32:40;;;;;;;7.60;3.58;;;;;;;19.72;53.01;99398.34;7737216;32;37468;-78
2023/06/27 02:36:56;;;;;;;9.15;3.85;;;;;;;19.68;53.43;99391.87;7737146;32;39258;-77
2023/06/27 02:41:12;;;;;;;6.90;3.75;;;;;;;19.63;53.58;99392.91;7737015;32;40792;-78
2023/06/27 02:45:28;;;;;;;6.85;3.62;;;;;;;19.75;53.20;99394.94;7723041;32;37871;-78
2023/06/27 02:49:45;;;;;;;6.87;3.58;;;;;;;19.67;53.80;99410.41;7738351;32;36966;-77
2023/06/27 02:54:01;;;;;;;9.10;3.75;;;;;;;19.59;54.62;99397.53;7739936;32;39030;-77
2023/06/27 02:58:17;;;;;;;9.45;4.00;;;;;;;19.72;54.80;99400.31;7739901;32;39854;-77
2023/06/27 03:02:33;;;;;;;9.43;4.05;;;;;;;19.65;55.76;99396.12;7739882;32;37934;-77
2023/06/27 03:06:50;;;;;;;6.80;3.95;;;;;;;19.82;54.77;99378.56;7739927;32;37155;-77
2023/06/27 03:11:06;;;;;;;10.48;3.90;;;;;;;19.77;54.17;99364.97;7739722;32;39498;-77
2023/06/27 03:15:22;;;;;;;5.75;3.60;;;;;;;19.65;54.60;99362.16;7739502;32;40007;-77
2023/06/27 03:19:38;;;;;;;7.53;3.87;;;;;;;19.73;54.67;99377.00;7739712;32;37794;-77
2023/06/27 03:24:00;;;;;;;11.50;4.53;;;;;;;19.62;55.58;99380.22;7739708;32;37082;-77
2023/06/27 03:28:16;;;;;;;7.30;3.67;;;;;;;19.87;54.89;99375.56;7739786;32;39292;-77
2023/06/27 03:32:33;;;;;;;9.30;3.83;;;;;;;19.78;55.17;99357.47;7739522;32;40001;-77
2023/06/27 03:36:49;;;;;;;8.20;3.97;;;;;;;19.71;55.35;99366.28;7739349;32;38662;-78
2023/06/27 03:41:05;;;;;;;7.20;3.80;;;;;;;19.89;55.02;99362.19;7739498;32;37154;-78
2023/06/27 03:45:22;;;;;;;7.72;3.70;;;;;;;19.98;54.94;99364.06;7739378;32;39279;-78
2023/06/27 03:49:38;;;;;;;6.47;4.03;;;;;;;19.84;55.68;99362.44;7739391;32;39920;-77
2023/06/27 03:53:54;;;;;;;7.10;3.92;;;;;;;19.78;57.03;99374.88;7738997;32;38669;-77
2023/06/27 03:58:10;;;;;;;9.95;4.07;;;;;;;19.94;56.74;99407.37;7739236;32;37998;-77
2023/06/27 04:02:27;;;;;;;8.40;3.55;;;;;;;19.97;57.34;99413.06;7738652;32;39088;-78
2023/06/27 04:06:43;;;;;;;7.75;3.75;;;;;;;19.97;56.97;99428.81;7739153;32;40188;-77
2023/06/27 04:11:00;;;;;;;8.68;3.78;;;;;;;19.92;57.05;99434.59;7739052;32;37477;-76
2023/06/27 04:15:16;;;;;;;5.57;3.40;;;;;;;19.71;57.52;99416.06;7738925;32;36590;-77
2023/06/27 04:19:32;;;;;;;12.25;3.67;;;;;;;19.80;57.66;99436.19;7739101;32;40253;-77
2023/06/27 04:23:51;;;;;;;8.20;4.50;;;;;;;19.76;57.12;99451.84;7738823;32;39997;-77
2023/06/27 04:28:07;;;;;;;8.80;4.40;;;;;;;19.83;58.84;99434.69;7738943;32;38051;-77
2023/06/27 04:32:23;;;;;;;7.50;3.87;;;;;;;20.02;59.32;99418.38;7738861;32;37053;-77
2023/06/27 04:36:41;;;;;;;9.30;4.70;;;;;;;20.15;59.24;99412.84;7738641;32;39527;-77
2023/06/27 04:40:57;;;;;;;9.07;5.07;;;;;;;20.17;59.20;99355.19;7738559;32;40019;-77
2023/06/27 04:45:14;;;;;;;9.18;4.50;;;;;;;20.25;60.16;99363.34;7738600;32;38800;-71
2023/06/27 04:49:30;;;;;;;8.88;4.82;;;;;;;20.66;59.43;99380.03;7738565;32;36996;-71
2023/06/27 04:53:46;;;;;;;9.65;5.00;;;;;;;21.07;59.88;99368.97;7737979;32;40001;-73
2023/06/27 04:58:02;;;;;;;8.43;4.70;;;;;;;21.35;59.14;99364.22;7738601;32;40056;-71
2023/06/27 05:02:18;;;;;;;8.80;4.30;;;;;;;21.05;61.33;99399.78;7738622;32;37961;-72
2023/06/27 05:06:34;;;;;;;8.90;4.50;;;;;;;20.95;60.23;99416.91;7738633;32;37124;-71
2023/06/27 05:10:51;;;;;;;8.75;4.20;;;;;;;21.27;59.63;99417.84;7738485;32;39927;-72
2023/06/27 05:15:07;;;;;;;8.18;4.32;;;;;;;21.25;59.84;99422.94;7738492;32;39589;-72
2023/06/27 05:19:24;;;;;;;9.52;4.75;;;;;;;21.35;59.80;99419.66;7738314;32;38777;-73
2023/06/27 05:23:40;;;;;;;9.95;4.90;;;;;;;21.49;59.23;99419.28;7738406;32;37257;-71
2023/06/27 05:27:56;;;;;;;11.80;5.10;;;;;;;21.51;59.59;99421.72;7738406;32;39447;-70
2023/06/27 05:32:12;;;;;;;8.52;4.75;;;;;;;21.71;59.14;99436.50;7724336;32;41271;-70
2023/06/27 05:36:29;;;;;;;11.63;5.22;;;;;;;21.71;59.78;99439.28;7738295;32;38497;-69
2023/06/27 05:40:45;;;;;;;8.93;4.85;;;;;;;21.82;60.18;99420.94;7735966;32;36904;-71
2023/06/27 05:45:02;;;;;;;10.38;5.05;;;;;;;22.07;60.45;99432.69;7737534;32;39276;-69
2023/06/27 05:49:18;;;;;;;9.25;4.87;;;;;;;22.10;59.75;99426.41;7735536;32;37830;-71
2023/06/27 05:53:34;;;;;;;9.10;5.05;;;;;;;22.34;59.86;99427.44;7733762;32;38643;-72
2023/06/27 05:57:50;;;;;;;12.48;5.65;;;;;;;22.52;59.67;99438.16;7733418;32;37475;-71
2023/06/27 06:02:06;;;;;;;10.23;5.90;;;;;;;22.47;59.06;99440.06;7729478;32;39595;-72
2023/06/27 06:06:23;;;;;;;13.07;6.93;;;;;;;22.57;59.55;99443.44;7733763;32;39336;-72
2023/06/27 06:10:39;;;;;;;11.25;6.65;;;;;;;22.31;59.41;99442.03;7735215;32;37777;-70
2023/06/27 06:14:55;;;;;;;12.75;6.85;;;;;;;22.67;59.30;99434.53;7733558;32;37678;-72
2023/06/27 06:19:11;;;;;;;13.80;6.68;;;;;;;22.43;60.58;99432.78;7715318;32;40015;-72
2023/06/27 06:23:28;;;;;;;15.23;7.10;;;;;;;22.35;60.29;99428.22;7732980;32;39955;-70
2023/06/27 06:27:44;;;;;;;13.32;7.07;;;;;;;22.24;60.33;99433.50;7737133;32;37906;-70
2023/06/27 06:32:00;;;;;;;15.40;7.03;;;;;;;22.39;60.28;99443.03;7710566;32;36704;-70
2023/06/27 06:36:18;;;;;;;13.57;7.12;;;;;;;22.39;61.28;99452.16;7725650;32;39431;-71
2023/06/27 06:40:34;;;;;;;11.68;6.60;;;;;;;22.50;60.35;99455.19;7734974;32;39034;-71
2023/06/27 06:44:51;;;;;;;12.68;6.30;;;;;;;22.98;59.47;99457.84;7736303;32;38471;-71
2023/06/27 06:49:08;;;;;;;16.73;7.37;;;;;;;23.06;58.40;99465.22;7736125;32;37386;-70
2023/06/27 06:53:25;;;;;;;15.60;6.50;;;;;;;22.68;58.57;99483.41;7718287;32;39018;-72
2023/06/27 06:57:41;;;;;;;12.88;7.30;;;;;;;22.79;57.25;99480.84;7733131;32;39632;-77
2023/06/27 07:01:57;;;;;;;13.68;7.28;;;;;;;22.70;57.12;99492.16;7736635;32;37842;-78
2023/06/27 07:06:13;;;;;;;12.77;6.93;;;;;;;22.73;58.46;99485.06;7721369;32;37897;-76
2023/06/27 07:10:30;;;;;;;12.90;6.93;;;;;;;22.94;57.82;99485.59;7736450;32;40095;-76
2023/06/27 07:14:46;;;;;;;11.07;6.40;;;;;;;23.08;56.29;99487.06;7735926;32;39862;-76
2023/06/27 07:19:03;;;;;;;10.90;6.62;;;;;;;23.09;56.03;99483.94;7735544;32;38791;-75
2023/06/27 07:23:19;;;;;;;20.48;7.03;;;;;;;23.17;55.39;99487.69;7722932;32;37657;-76
2023/06/27 07:27:35;;;;;;;13.00;6.57;;;;;;;23.25;55.73;99490.25;7735728;32;39765;-76
2023/06/27 07:31:51;;;;;;;14.43;6.97;;;;;;;23.43;54.33;99478.69;7734124;32;40802;-77
2023/06/27 07:36:08;;;;;;;10.63;6.68;;;;;;;23.36;55.54;99490.47;7737423;32;37847;-74
2023/06/27 07:40:24;;;;;;;13.68;6.22;;;;;;;23.47;54.92;99490.69;7738786;32;37048;-75
2023/06/27 07:44:40;;;;;;;13.23;6.97;;;;;;;23.36;55.59;99496.03;7738994;32;40097;-75
2023/06/27 07:48:59;;;;;;;11.07;6.32;;;;;;;23.42;54.81;99489.03;7738235;32;39969;-75
2023/06/27 07:53:15;;;;;;;13.43;6.82;;;;;;;23.41;55.37;99500.50;7739008;32;38953;-75
2023/06/27 07:57:31;;;;;;;11.70;6.43;;;;;;;23.56;54.47;99499.63;7723823;32;37153;-76
2023/06/27 08:01:48;;;;;;;11.02;6.32;;;;;;;23.50;54.46;99505.84;7738509;32;39358;-76
2023/06/27 08:06:05;;;;;;;11.05;6.35;;;;;;;23.75;54.29;99496.03;7737916;32;40097;-76
2023/06/27 08:10:21;;;;;;;15.35;6.47;;;;;;;23.65;55.25;99504.97;7720786;32;38155;-76
2023/06/27 08:14:42;;;;;;;10.95;5.93;;;;;;;23.75;54.84;99507.16;7726243;32;37341;-76
2023/06/27 08:18:59;;;;;;;11.07;6.32;;;;;;;24.36;53.74;99505.50;7735382;32;39044;-76
2023/06/27 08:23:15;;;;;;;11.63;5.90;;;;;;;23.74;54.41;99518.66;7736629;32;40767;-75
2023/06/27 08:27:31;;;;;;;11.82;6.10;;;;;;;24.36;54.24;99524.22;7737680;32;38726;-75
2023/06/27 08:31:49;;;;;;;12.98;5.35;;;;;;;24.40;53.73;99502.78;7738293;32;37934;-76
2023/06/27 08:36:06;;;;;;;10.77;5.53;;;;;;;24.41;51.51;99500.81;7738715;32;38384;-76
2023/06/27 08:40:26;;;;;;;10.27;5.18;;;;;;;24.59;50.88;99506.72;7737854;32;40650;-74
2023/06/27 08:44:43;;;;;;;12.30;6.30;;;;;;;24.07;53.64;99517.31;7738670;32;37951;-75
2023/06/27 08:49:02;;;;;;;13.25;5.82;;;;;;;24.19;52.55;99498.44;7723955;32;37632;-75
2023/06/27 08:53:21;;;;;;;13.38;6.22;;;;;;;24.23;52.76;99492.94;7724861;32;39959;-75
2023/06/27 08:57:38;;;;;;;12.15;5.32;;;;;;;24.24;52.47;99488.19;7710349;32;40061;-76
2023/06/27 09:01:54;;;;;;;11.23;5.70;;;;;;;24.13;52.74;99493.59;7722728;32;38633;-76
2023/06/27 09:06:12;;;;;;;9.50;5.62;;;;;;;24.22;52.58;99501.69;7737941;32;36789;-76
2023/06/27 09:10:28;;;;;;;10.68;5.47;;;;;;;24.70;51.96;99505.72;7738129;32;39421;-76
2023/06/27 09:14:45;;;;;;;8.77;5.53;;;;;;;24.74;51.69;99500.97;7738271;32;39607;-76
2023/06/27 09:19:01;;;;;;;9.45;5.32;;;;;;;24.96;50.92;99500.50;7737957;32;38007;-76
2023/06/27 09:23:17;;;;;;;11.50;5.65;;;;;;;25.46;50.35;99507.59;7738147;32;37857;-76
2023/06/27 09:27:34;;;;;;;15.60;5.03;;;;;;;25.31;49.83;99505.78;7737963;32;39416;-76
2023/06/27 09:32:04;;;;;;;9.15;5.40;;;;;;;25.80;48.90;99524.34;7737848;32;40813;-75
2023/06/27 09:36:31;;;;;;;8.57;5.32;;;;;;;25.39;49.13;99526.22;7715335;32;37915;-76
2023/06/27 09:41:00;;;;;;;9.25;5.25;;;;;;;25.92;49.11;99517.69;7737556;32;37192;-75
2023/06/27 09:45:16;;;;;;;10.93;4.75;;;;;;;26.45;48.66;99513.84;7711816;32;39242;-76
2023/06/27 09:49:34;;;;;;;8.10;4.60;;;;;;;26.78;47.75;99524.09;7737838;32;40005;-76
2023/06/27 09:53:54;;;;;;;8.70;4.55;;;;;;;27.19;46.79;99525.19;7723950;32;37113;-75
2023/06/27 09:58:10;;;;;;;9.68;4.03;;;;;;;27.13;44.25;99528.34;7721609;32;37942;-75
2023/06/27 10:02:30;;;;;;;10.55;4.37;;;;;;;27.23;45.53;99517.59;7735781;32;39850;-77
2023/06/27 10:06:46;;;;;;;5.87;3.62;;;;;;;27.54;43.86;99535.78;7735029;32;39996;-78
2023/06/27 10:11:02;;;;;;;9.80;4.68;;;;;;;27.31;44.17;99525.66;7722687;32;37990;-77
2023/06/27 10:15:19;;;;;;;14.87;4.70;;;;;;;27.56;43.18;99521.37;7737685;32;37165;-76
2023/06/27 10:19:35;;;;;;;7.35;4.35;;;;;;;27.24;43.54;99550.78;7727589;32;39807;-77
2023/06/27 10:23:53;;;;;;;9.38;4.20;;;;;;;27.14;43.38;99557.91;7723829;32;40453;-76
2023/06/27 10:28:13;;;;;;;8.02;4.05;;;;;;;27.07;43.86;99571.06;7723410;32;38691;-76
2023/06/27 10:32:43;;;;;;;7.10;4.07;;;;;;;26.70;44.19;99549.59;7737335;32;37608;-78
2023/06/27 10:37:03;;;;;;;7.18;4.00;;;;;;;25.89;45.51;99545.56;7737089;32;39443;-75
2023/06/27 10:41:33;;;;;;;7.53;3.65;;;;;;;25.89;45.00;99545.56;7737201;32;40927;-73
2023/06/27 10:46:06;;;;;;;9.77;3.53;;;;;;;26.14;45.18;99565.44;7737097;32;38757;-73
2023/06/27 10:50:24;;;;;;;8.52;4.00;;;;;;;25.69;45.29;99587.63;7736976;32;36889;-73
2023/06/27 10:54:41;;;;;;;7.25;3.85;;;;;;;25.05;46.73;99604.22;7736959;32;39469;-73
2023/06/27 10:58:59;;;;;;;11.65;4.32;;;;;;;24.60;47.83;99606.66;7736343;32;40908;-76
2023/06/27 11:03:22;;;;;;;6.40;3.92;;;;;;;24.91;47.36;99602.00;7729660;32;37987;-76
2023/06/27 11:07:40;;;;;;;8.55;4.40;;;;;;;24.57;48.00;99604.59;7736520;32;37399;-73
2023/06/27 11:12:10;;;;;;;12.80;4.80;;;;;;;24.56;48.54;99605.81;7711004;32;39541;-73
2023/06/27 11:16:26;;;;;;;17.23;11.02;;;;;;;24.62;48.73;99607.09;7713129;32;39926;-73
2023/06/27 11:20:43;;;;;;;9.73;5.22;;;;;;;24.47;49.33;99599.63;7712870;32;38696;-74
2023/06/27 11:25:09;;;;;;;11.82;5.87;;;;;;;24.71;48.90;99599.28;7732738;32;36351;-74
2023/06/27 11:29:26;;;;;;;8.40;5.07;;;;;;;24.74;48.80;99592.97;7739591;32;40181;-73
2023/06/27 11:33:42;;;;;;;9.25;6.28;;;;;;;24.99;49.62;99606.53;7725866;32;39974;-74
2023/06/27 11:37:59;;;;;;;10.13;5.90;;;;;;;24.43;50.87;99618.25;7739603;32;37607;-75
2023/06/27 11:42:16;;;;;;;8.75;5.93;;;;;;;24.30;52.46;99615.66;7739637;32;37077;-73
2023/06/27 11:46:32;;;;;;;13.93;5.90;;;;;;;23.95;53.10;99621.31;7738739;32;39331;-73
2023/06/27 11:51:05;;;;;;;9.60;5.90;;;;;;;23.43;54.94;99629.69;7738735;32;39966;-73
2023/06/27 11:55:21;;;;;;;14.15;6.35;;;;;;;23.61;54.86;99629.28;7737055;32;37890;-73
2023/06/27 11:59:38;;;;;;;10.52;5.65;;;;;;;23.04;55.19;99617.63;7736527;32;37186;-71
2023/06/27 12:03:54;;;;;;;11.10;5.72;;;;;;;22.74;56.01;99614.50;7736178;32;40151;-73
2023/06/27 12:08:11;;;;;;;15.75;9.73;;;;;;;23.03;55.06;99594.59;7735784;32;39829;-73
2023/06/27 12:12:33;;;;;;;10.52;6.40;;;;;;;22.76;55.27;99607.41;7736296;32;36275;-73
2023/06/27 12:16:49;;;;;;;12.02;6.50;;;;;;;22.96;54.82;99599.19;7733921;32;36878;-73
2023/06/27 12:21:05;;;;;;;11.18;6.28;;;;;;;23.11;54.37;99587.28;7735601;32;40355;-73
2023/06/27 12:25:21;;;;;;;13.02;6.45;;;;;;;23.52;53.79;99584.19;7721096;32;40037;-74
2023/06/27 12:29:38;;;;;;;11.55;6.62;;;;;;;23.17;55.54;99588.59;7736246;32;36525;-73
2023/06/27 12:33:55;;;;;;;14.52;6.65;;;;;;;23.34;53.12;99583.81;7735219;32;38036;-73
2023/06/27 12:38:11;;;;;;;11.68;6.78;;;;;;;23.03;54.46;99571.56;7735897;32;39037;-74
2023/06/27 12:42:27;;;;;;;12.20;6.53;;;;;;;23.20;53.65;99571.19;7735335;32;40591;-73
2023/06/27 12:46:47;;;;;;;10.88;6.93;;;;;;;23.10;52.94;99560.63;7734517;32;37923;-75
2023/06/27 12:51:15;;;;;;;13.88;6.25;;;;;;;23.32;52.12;99572.22;7733641;32;37146;-74
2023/06/27 12:55:36;;;;;;;16.00;5.87;;;;;;;23.08;53.14;99574.09;7735222;32;38628;-74
2023/06/27 12:59:54;;;;;;;12.00;6.32;;;;;;;23.39;53.09;99589.87;7734604;32;41057;-74
2023/06/27 13:04:13;;;;;;;10.90;6.15;;;;;;;23.00;53.02;99594.50;7732124;32;37600;-75
2023/06/27 13:08:30;;;;;;;12.05;6.20;;;;;;;23.22;53.10;99587.50;7736182;32;37086;-74
2023/06/27 13:12:49;;;;;;;10.77;6.10;;;;;;;22.60;54.53;99587.16;7733481;32;38639;-74
2023/06/27 13:17:06;;;;;;;11.73;6.07;;;;;;;22.73;55.73;99585.09;7736594;32;39985;-75
2023/06/27 13:21:22;;;;;;;11.93;6.05;;;;;;;23.08;53.61;99571.31;7738188;32;38820;-74
2023/06/27 13:25:41;;;;;;;11.07;5.70;;;;;;;22.45;54.75;99564.56;7738490;32;36888;-73
2023/06/27 13:29:58;;;;;;;11.75;5.53;;;;;;;22.49;54.89;99565.47;7738186;32;39382;-73
2023/06/27 13:34:14;;;;;;;8.82;5.30;;;;;;;22.20;54.49;99566.66;7738205;32;39998;-73
2023/06/27 13:38:31;;;;;;;9.50;5.47;;;;;;;22.15;54.53;99569.72;7738088;32;38071;-73
2023/06/27 13:42:47;;;;;;;9.18;5.40;;;;;;;22.07;54.88;99565.91;7738206;32;37165;-73
2023/06/27 13:47:03;;;;;;;10.40;5.62;;;;;;;22.27;54.21;99560.50;7738200;32;39399;-74
2023/06/27 13:51:20;;;;;;;10.25;4.68;;;;;;;22.60;53.71;99570.50;7737764;32;39939;-74
2023/06/27 13:55:36;;;;;;;9.05;4.68;;;;;;;22.57;53.29;99583.13;7737507;32;38821;-74
2023/06/27 13:59:52;;;;;;;11.30;5.15;;;;;;;22.59;52.81;99583.56;7737829;32;37224;-73
2023/06/27 14:04:10;;;;;;;10.35;5.32;;;;;;;22.79;52.51;99570.56;7724041;32;40152;-74
2023/06/27 14:08:27;;;;;;;9.18;4.93;;;;;;;22.77;52.87;99581.25;7736595;32;39083;-74
2023/06/27 14:12:43;;;;;;;8.40;4.78;;;;;;;23.05;52.38;99583.94;7737767;32;38143;-74
2023/06/27 14:17:00;;;;;;;8.57;4.55;;;;;;;22.72;52.83;99578.75;7737340;32;37122;-74
2023/06/27 14:21:16;;;;;;;10.48;4.90;;;;;;;22.84;53.05;99575.88;7717523;32;39308;-74
2023/06/27 14:25:33;;;;;;;12.15;5.07;;;;;;;22.85;51.59;99574.72;7732692;32;40770;-73
2023/06/27 14:29:49;;;;;;;15.50;5.10;;;;;;;22.93;50.65;99566.53;7717772;32;37650;-73
2023/06/27 14:34:05;;;;;;;9.90;4.62;;;;;;;22.94;51.80;99562.56;7732567;32;37671;-73
2023/06/27 14:38:22;;;;;;;9.15;5.07;;;;;;;22.97;52.20;99568.22;7729540;32;39378;-73
2023/06/27 14:42:39;;;;;;;10.57;5.25;;;;;;;22.95;52.27;99566.97;7732719;32;40313;-74
2023/06/27 14:46:56;;;;;;;10.82;4.55;;;;;;;22.80;52.41;99554.69;7733278;32;36723;-74
2023/06/27 14:51:12;;;;;;;9.50;5.43;;;;;;;22.99;51.95;99560.34;7736621;32;37253;-74
2023/06/27 14:55:29;;;;;;;7.97;4.78;;;;;;;23.10;51.64;99568.97;7736863;32;39396;-73
2023/06/27 14:59:46;;;;;;;11.45;5.53;;;;;;;22.92;51.98;99559.34;7736621;32;40774;-73
2023/06/27 15:04:02;;;;;;;14.80;4.95;;;;;;;22.60;52.70;99567.72;7736625;32;38677;-73
2023/06/27 15:08:18;;;;;;;9.77;5.00;;;;;;;22.61;52.04;99572.09;7736003;32;37300;-74
2023/06/27 15:12:35;;;;;;;7.53;4.40;;;;;;;22.71;51.13;99556.88;7736537;32;39002;-74
2023/06/27 15:16:51;;;;;;;10.05;4.20;;;;;;;22.88;49.92;99551.72;7736297;32;39911;-74
2023/06/27 15:21:08;;;;;;;10.73;4.07;;;;;;;23.00;49.99;99561.16;7735923;32;37877;-70
2023/06/27 15:25:24;;;;;;;9.50;4.32;;;;;;;22.98;49.25;99547.59;7736091;32;37432;-71
2023/06/27 15:29:41;;;;;;;7.18;3.12;;;;;;;23.23;49.63;99553.78;7710461;32;39039;-71
2023/06/27 15:33:57;;;;;;;8.38;3.25;;;;;;;23.22;45.60;99546.59;7708788;32;40004;-73
2023/06/27 15:38:14;;;;;;;6.80;2.60;;;;;;;23.36;44.24;99560.00;7712498;32;37899;-74
2023/06/27 15:42:32;;;;;;;5.15;2.70;;;;;;;23.45;40.92;99554.22;7728484;32;37069;-73
2023/06/27 15:46:55;;;;;;;8.43;2.70;;;;;;;23.37;39.64;99558.03;7731353;32;39329;-73
2023/06/27 15:51:14;;;;;;;5.75;2.62;;;;;;;23.31;40.93;99560.28;7729237;32;37888;-73
2023/06/27 15:55:33;;;;;;;5.20;2.60;;;;;;;23.32;39.64;99552.75;7730490;32;36401;-73
2023/06/27 15:59:51;;;;;;;6.07;2.50;;;;;;;23.22;38.84;99563.28;7736973;32;37963;-74
2023/06/27 16:04:07;;;;;;;8.00;2.40;;;;;;;23.05;39.26;99567.25;7738163;32;40285;-73
2023/06/27 16:08:24;;;;;;;6.80;3.45;;;;;;;23.01;38.98;99571.91;7738811;32;40075;-74
2023/06/27 16:12:42;;;;;;;3.72;2.62;;;;;;;22.80;39.73;99579.72;7737550;32;37930;-74
2023/06/27 16:17:01;;;;;;;9.45;3.75;;;;;;;22.79;40.78;99570.56;7735035;32;35769;-74
2023/06/27 16:21:28;;;;;;;3.33;2.15;;;;;;;23.00;39.81;99577.81;7734323;32;39407;-73
2023/06/27 16:25:59;;;;;;;13.13;2.40;;;;;;;22.79;38.46;99576.13;7730437;32;39663;-74
2023/06/27 16:30:16;;;;;;;4.07;2.10;;;;;;;22.82;37.85;99583.75;7738169;32;37977;-73
2023/06/27 16:34:38;;;;;;;6.40;2.40;;;;;;;22.66;39.31;99585.72;7734822;32;37095;-73
2023/06/27 16:38:55;;;;;;;4.95;2.40;;;;;;;22.52;39.07;99585.38;7713433;32;39336;-73
2023/06/27 16:43:12;;;;;;;3.33;2.33;;;;;;;22.50;39.09;99588.50;7732628;32;40793;-73
2023/06/27 16:47:28;;;;;;;5.50;2.20;;;;;;;21.94;40.32;99597.69;7732939;32;37854;-73
2023/06/27 16:51:45;;;;;;;3.03;2.08;;;;;;;22.45;40.09;99591.53;7733036;32;38128;-73
2023/06/27 16:56:01;;;;;;;3.72;2.03;;;;;;;22.38;39.95;99586.59;7738259;32;39076;-73
2023/06/27 17:00:18;;;;;;;6.00;2.20;;;;;;;22.65;40.00;99590.47;7738302;32;39916;-73
2023/06/27 17:04:35;;;;;;;5.68;2.60;;;;;;;22.27;40.72;99594.66;7737724;32;37892;-73
2023/06/27 17:08:51;;;;;;;3.05;2.10;;;;;;;22.29;41.08;99588.75;7737771;32;37106;-73
2023/06/27 17:13:13;;;;;;;5.37;2.33;;;;;;;22.39;40.79;99596.56;7737829;32;39346;-73
2023/06/27 17:17:29;;;;;;;5.22;2.00;;;;;;;22.30;41.39;99598.69;7737360;32;40038;-73
2023/06/27 17:21:46;;;;;;;5.50;2.03;;;;;;;22.31;42.03;99591.97;7737105;32;37884;-74
2023/06/27 17:26:03;;;;;;;7.18;2.30;;;;;;;22.31;41.34;99594.75;7738094;32;37116;-73
2023/06/27 17:30:19;;;;;;;2.83;1.75;;;;;;;22.24;40.48;99600.09;7738005;32;39179;-73
2023/06/27 17:34:36;;;;;;;7.55;2.10;;;;;;;22.02;40.44;99602.25;7725039;32;40857;-73
2023/06/27 17:38:52;;;;;;;3.60;2.12;;;;;;;21.83;40.67;99596.56;7722262;32;37890;-74
2023/06/27 17:43:08;;;;;;;4.07;2.25;;;;;;;21.93;41.46;99604.37;7727307;32;37803;-81
2023/06/27 17:47:24;;;;;;;3.45;2.20;;;;;;;21.53;43.17;99602.44;7737829;32;39527;-80
2023/06/27 17:51:41;;;;;;;5.07;2.35;;;;;;;21.76;43.71;99595.19;7735372;32;40880;-80
2023/06/27 17:55:57;;;;;;;8.02;2.50;;;;;;;21.71;44.10;99592.69;7738129;32;38496;-78
2023/06/27 18:00:14;;;;;;;4.40;2.30;;;;;;;21.68;44.32;99587.81;7725107;32;37598;-75
2023/06/27 18:04:30;;;;;;;6.30;2.58;;;;;;;21.73;44.39;99592.31;7724753;32;39960;-75
2023/06/27 18:08:47;;;;;;;5.40;2.40;;;;;;;21.71;44.56;99601.00;7734787;32;40985;-75
2023/06/27 18:13:08;;;;;;;5.57;2.30;;;;;;;21.90;43.95;99593.97;7737627;32;37630;-76
2023/06/27 18:17:25;;;;;;;6.80;2.45;;;;;;;21.64;44.23;99609.09;7734410;32;37256;-75
2023/06/27 18:21:41;;;;;;;4.15;1.98;;;;;;;21.28;44.55;99607.97;7736622;32;40110;-75
2023/06/27 18:25:59;;;;;;;5.80;2.40;;;;;;;21.71;43.97;99608.50;7737406;32;40062;-75
2023/06/27 18:30:15;;;;;;;11.02;2.45;;;;;;;21.54;44.01;99618.72;7721083;32;37978;-74
2023/06/27 18:34:31;;;;;;;9.15;2.30;;;;;;;21.32;44.60;99611.66;7727971;32;37272;-74
2023/06/27 18:38:48;;;;;;;3.75;2.20;;;;;;;21.29;44.50;99611.56;7732870;32;40028;-74
2023/06/27 18:43:04;;;;;;;8.07;3.45;;;;;;;21.38;44.09;99624.12;7731916;32;40693;-75
2023/06/27 18:47:20;;;;;;;4.65;2.83;;;;;;;21.58;44.67;99624.38;7727208;32;38608;-74
2023/06/27 18:51:36;;;;;;;8.05;2.35;;;;;;;21.53;45.37;99614.31;7730313;32;37120;-75
2023/06/27 18:55:53;;;;;;;4.28;2.22;;;;;;;21.73;44.93;99618.09;7732244;32;39193;-74
2023/06/27 19:00:10;;;;;;;4.25;2.30;;;;;;;21.70;45.11;99635.44;7731076;32;40011;-74
2023/06/27 19:04:27;;;;;;;6.03;2.22;;;;;;;21.66;44.96;99645.63;7730318;32;38593;-74
2023/06/27 19:08:43;;;;;;;9.00;2.25;;;;;;;21.89;44.09;99647.88;7733120;32;36838;-74
2023/06/27 19:13:04;;;;;;;4.93;2.00;;;;;;;21.52;45.43;99648.75;7736378;32;39353;-74
2023/06/27 19:17:20;;;;;;;5.78;2.05;;;;;;;21.57;45.30;99653.25;7722130;32;40116;-75
2023/06/27 19:21:40;;;;;;;5.95;2.00;;;;;;;21.60;45.27;99654.53;7709268;32;38146;-75
2023/06/27 19:25:56;;;;;;;4.10;2.22;;;;;;;21.78;44.56;99657.84;7729703;32;38290;-74
2023/06/27 19:30:13;;;;;;;4.68;2.20;;;;;;;21.49;45.38;99657.78;7730480;32;39854;-74
2023/06/27 19:34:29;;;;;;;6.05;2.25;;;;;;;21.65;44.76;99663.41;7735204;32;39841;-75
2023/06/27 19:38:46;;;;;;;5.55;2.60;;;;;;;21.55;44.64;99655.56;7726199;32;37918;-74
2023/06/27 19:43:02;;;;;;;6.20;2.42;;;;;;;21.27;45.42;99666.56;7739473;32;37304;-73
2023/06/27 19:47:19;;;;;;;4.65;1.65;;;;;;;21.20;45.49;99662.38;7726798;32;40659;-74
2023/06/27 19:51:36;;;;;;;8.55;2.33;;;;;;;21.08;45.56;99662.38;7724410;32;40527;-74
2023/06/27 19:55:53;;;;;;;4.10;1.98;;;;;;;21.19;44.78;99669.06;7722975;32;38398;-74
2023/06/27 20:00:10;;;;;;;4.47;2.37;;;;;;;21.29;44.44;99670.59;7723929;32;37047;-74
2023/06/27 20:04:26;;;;;;;4.85;2.22;;;;;;;21.21;44.72;99660.41;7720278;32;40063;-75